sensor_id;sensor_type;location;lat;lon;timestamp;temperature;humidity
47532;DHT22;33273;52.254;7.988;2023-05-10T00:01:26;14.20;99.90
47532;DHT22;33273;52.254;7.988;2023-05-10T00:03:52;14.10;99.90
47532;DHT22;33273;52.254;7.988;2023-05-10T00:06:17;14.20;99.90
47532;DHT22;33273;52.254;7.988;2023-05-10T00:08:44;14.20;99.90
47532;DHT22;33273;52.254;7.988;2023-05-10T00:11:10;14.10;99.90
47532;DHT22;33273;52.254;7.988;2023-05-10T00:13:35;14.20;99.90
47532;DHT22;33273;52.254;7.988;2023-05-10T00:16:01;14.20;99.90
47532;DHT22;33273;52.254;7.988;2023-05-10T00:18:27;14.20;99.90
47532;DHT22;33273;52.254;7.988;2023-05-10T00:20:53;14.20;99.90
47532;DHT22;33273;52.254;7.988;2023-05-10T00:23:19;14.20;99.90
47532;DHT22;33273;52.254;7.988;2023-05-10T00:25:44;14.20;99.90
47532;DHT22;33273;52.254;7.988;2023-05-10T00:28:10;14.20;99.90
47532;DHT22;33273;52.254;7.988;2023-05-10T00:30:36;14.20;99.90
47532;DHT22;33273;52.254;7.988;2023-05-10T00:33:03;14.10;99.90
47532;DHT22;33273;52.254;7.988;2023-05-10T00:35:30;14.10;99.90
47532;DHT22;33273;52.254;7.988;2023-05-10T00:37:56;14.10;99.90
47532;DHT22;33273;52.254;7.988;2023-05-10T00:40:22;14.10;99.90
47532;DHT22;33273;52.254;7.988;2023-05-10T00:42:52;14.10;99.90
47532;DHT22;33273;52.254;7.988;2023-05-10T00:45:18;14.10;99.90
47532;DHT22;33273;52.254;7.988;2023-05-10T00:47:45;14.10;99.90
47532;DHT22;33273;52.254;7.988;2023-05-10T00:50:11;14.00;99.90
47532;DHT22;33273;52.254;7.988;2023-05-10T00:52:37;14.10;99.90
47532;DHT22;33273;52.254;7.988;2023-05-10T00:55:06;14.10;99.90
47532;DHT22;33273;52.254;7.988;2023-05-10T00:57:32;14.10;99.90
47532;DHT22;33273;52.254;7.988;2023-05-10T00:59:59;14.10;99.90
47532;DHT22;33273;52.254;7.988;2023-05-10T01:02:25;14.10;99.90
47532;DHT22;33273;52.254;7.988;2023-05-10T01:04:51;14.10;99.90
47532;DHT22;33273;52.254;7.988;2023-05-10T01:07:17;14.10;99.90
47532;DHT22;33273;52.254;7.988;2023-05-10T01:09:43;14.00;99.90
47532;DHT22;33273;52.254;7.988;2023-05-10T01:12:11;14.00;99.90
47532;DHT22;33273;52.254;7.988;2023-05-10T01:14:37;14.00;99.90
47532;DHT22;33273;52.254;7.988;2023-05-10T01:17:04;14.00;99.90
47532;DHT22;33273;52.254;7.988;2023-05-10T01:19:31;14.00;99.90
47532;DHT22;33273;52.254;7.988;2023-05-10T01:25:10;13.90;99.90
47532;DHT22;33273;52.254;7.988;2023-05-10T01:30:35;14.00;99.90
47532;DHT22;33273;52.254;7.988;2023-05-10T01:33:21;14.10;99.90
47532;DHT22;33273;52.254;7.988;2023-05-10T01:39:09;14.20;99.90
47532;DHT22;33273;52.254;7.988;2023-05-10T01:47:12;14.10;99.90
47532;DHT22;33273;52.254;7.988;2023-05-10T01:49:43;14.10;99.90
47532;DHT22;33273;52.254;7.988;2023-05-10T01:52:18;14.20;99.90
47532;DHT22;33273;52.254;7.988;2023-05-10T01:54:59;14.10;99.90
47532;DHT22;33273;52.254;7.988;2023-05-10T01:57:33;14.10;99.90
47532;DHT22;33273;52.254;7.988;2023-05-10T02:00:02;14.10;99.90
47532;DHT22;33273;52.254;7.988;2023-05-10T02:02:42;14.10;99.90
47532;DHT22;33273;52.254;7.988;2023-05-10T02:05:12;14.10;99.90
47532;DHT22;33273;52.254;7.988;2023-05-10T02:07:39;14.10;99.90
47532;DHT22;33273;52.254;7.988;2023-05-10T02:10:08;14.10;99.90
47532;DHT22;33273;52.254;7.988;2023-05-10T02:12:37;14.10;99.90
47532;DHT22;33273;52.254;7.988;2023-05-10T02:15:06;14.10;99.90
47532;DHT22;33273;52.254;7.988;2023-05-10T02:17:35;14.10;99.90
47532;DHT22;33273;52.254;7.988;2023-05-10T02:20:02;14.10;99.90
47532;DHT22;33273;52.254;7.988;2023-05-10T02:22:30;14.10;99.90
47532;DHT22;33273;52.254;7.988;2023-05-10T02:24:58;14.10;99.90
47532;DHT22;33273;52.254;7.988;2023-05-10T02:27:27;14.10;99.90
47532;DHT22;33273;52.254;7.988;2023-05-10T02:29:53;14.10;99.90
47532;DHT22;33273;52.254;7.988;2023-05-10T02:32:22;14.10;99.90
47532;DHT22;33273;52.254;7.988;2023-05-10T02:34:52;14.10;99.90
47532;DHT22;33273;52.254;7.988;2023-05-10T02:37:19;14.00;99.90
47532;DHT22;33273;52.254;7.988;2023-05-10T02:39:50;14.00;99.90
47532;DHT22;33273;52.254;7.988;2023-05-10T02:42:19;13.90;99.90
47532;DHT22;33273;52.254;7.988;2023-05-10T02:44:51;13.90;99.90
47532;DHT22;33273;52.254;7.988;2023-05-10T02:47:18;13.90;99.90
47532;DHT22;33273;52.254;7.988;2023-05-10T02:49:47;13.90;99.90
47532;DHT22;33273;52.254;7.988;2023-05-10T02:52:18;13.90;99.90
47532;DHT22;33273;52.254;7.988;2023-05-10T02:54:50;13.60;99.90
47532;DHT22;33273;52.254;7.988;2023-05-10T02:57:24;13.40;99.90
47532;DHT22;33273;52.254;7.988;2023-05-10T02:59:51;13.20;99.90
47532;DHT22;33273;52.254;7.988;2023-05-10T03:02:17;13.10;99.90
47532;DHT22;33273;52.254;7.988;2023-05-10T03:04:43;13.00;99.90
47532;DHT22;33273;52.254;7.988;2023-05-10T03:07:10;12.90;99.90
47532;DHT22;33273;52.254;7.988;2023-05-10T03:09:36;12.90;99.90
47532;DHT22;33273;52.254;7.988;2023-05-10T03:12:23;13.00;99.90
47532;DHT22;33273;52.254;7.988;2023-05-10T03:17:47;12.90;99.90
47532;DHT22;33273;52.254;7.988;2023-05-10T03:20:34;12.80;99.90
47532;DHT22;33273;52.254;7.988;2023-05-10T03:23:50;12.80;99.90
47532;DHT22;33273;52.254;7.988;2023-05-10T03:25:51;12.80;99.90
47532;DHT22;33273;52.254;7.988;2023-05-10T03:28:18;12.80;99.90
47532;DHT22;33273;52.254;7.988;2023-05-10T03:30:47;12.80;99.90
47532;DHT22;33273;52.254;7.988;2023-05-10T03:33:13;12.80;99.90
47532;DHT22;33273;52.254;7.988;2023-05-10T03:35:42;12.80;99.90
47532;DHT22;33273;52.254;7.988;2023-05-10T03:38:10;12.70;99.90
47532;DHT22;33273;52.254;7.988;2023-05-10T03:40:36;12.70;99.90
47532;DHT22;33273;52.254;7.988;2023-05-10T03:43:02;12.70;99.90
47532;DHT22;33273;52.254;7.988;2023-05-10T03:45:28;12.70;99.90
47532;DHT22;33273;52.254;7.988;2023-05-10T03:47:55;12.70;99.90
47532;DHT22;33273;52.254;7.988;2023-05-10T03:50:27;12.70;99.90
47532;DHT22;33273;52.254;7.988;2023-05-10T03:52:53;12.70;99.90
47532;DHT22;33273;52.254;7.988;2023-05-10T03:55:19;12.70;99.90
47532;DHT22;33273;52.254;7.988;2023-05-10T03:57:45;12.70;99.90
47532;DHT22;33273;52.254;7.988;2023-05-10T04:00:11;12.70;99.90
47532;DHT22;33273;52.254;7.988;2023-05-10T04:02:40;12.60;99.90
47532;DHT22;33273;52.254;7.988;2023-05-10T04:05:08;12.70;99.90
47532;DHT22;33273;52.254;7.988;2023-05-10T04:07:35;12.70;99.90
47532;DHT22;33273;52.254;7.988;2023-05-10T04:10:01;12.70;99.90
47532;DHT22;33273;52.254;7.988;2023-05-10T04:12:27;12.60;99.90
47532;DHT22;33273;52.254;7.988;2023-05-10T04:14:52;12.60;99.90
47532;DHT22;33273;52.254;7.988;2023-05-10T04:17:18;12.60;99.90
47532;DHT22;33273;52.254;7.988;2023-05-10T04:19:44;12.60;99.90
47532;DHT22;33273;52.254;7.988;2023-05-10T04:22:10;12.60;99.90
47532;DHT22;33273;52.254;7.988;2023-05-10T04:24:36;12.60;99.90
47532;DHT22;33273;52.254;7.988;2023-05-10T04:27:02;12.60;99.90
47532;DHT22;33273;52.254;7.988;2023-05-10T04:29:27;12.60;99.90
47532;DHT22;33273;52.254;7.988;2023-05-10T04:31:54;12.70;99.90
47532;DHT22;33273;52.254;7.988;2023-05-10T04:34:21;12.60;99.90
47532;DHT22;33273;52.254;7.988;2023-05-10T04:36:46;12.60;99.90
47532;DHT22;33273;52.254;7.988;2023-05-10T04:39:12;12.60;99.90
47532;DHT22;33273;52.254;7.988;2023-05-10T04:41:39;12.60;99.90
47532;DHT22;33273;52.254;7.988;2023-05-10T04:44:05;12.60;99.90
47532;DHT22;33273;52.254;7.988;2023-05-10T04:46:31;12.70;99.90
47532;DHT22;33273;52.254;7.988;2023-05-10T04:48:57;12.70;99.90
47532;DHT22;33273;52.254;7.988;2023-05-10T04:51:23;12.70;99.90
47532;DHT22;33273;52.254;7.988;2023-05-10T04:53:49;12.70;99.90
47532;DHT22;33273;52.254;7.988;2023-05-10T04:56:15;12.70;99.90
47532;DHT22;33273;52.254;7.988;2023-05-10T04:58:41;12.70;99.90
47532;DHT22;33273;52.254;7.988;2023-05-10T05:01:08;12.70;99.90
47532;DHT22;33273;52.254;7.988;2023-05-10T05:03:35;12.70;99.90
47532;DHT22;33273;52.254;7.988;2023-05-10T05:06:01;12.70;99.90
47532;DHT22;33273;52.254;7.988;2023-05-10T05:08:27;12.70;99.90
47532;DHT22;33273;52.254;7.988;2023-05-10T05:10:53;12.80;99.90
47532;DHT22;33273;52.254;7.988;2023-05-10T05:13:21;12.80;99.90
47532;DHT22;33273;52.254;7.988;2023-05-10T05:15:47;12.80;99.90
47532;DHT22;33273;52.254;7.988;2023-05-10T05:18:13;12.70;99.90
47532;DHT22;33273;52.254;7.988;2023-05-10T05:20:39;12.70;99.90
47532;DHT22;33273;52.254;7.988;2023-05-10T05:23:05;12.70;99.90
47532;DHT22;33273;52.254;7.988;2023-05-10T05:25:31;12.80;99.90
47532;DHT22;33273;52.254;7.988;2023-05-10T05:27:57;12.80;99.90
47532;DHT22;33273;52.254;7.988;2023-05-10T05:30:23;12.80;99.90
47532;DHT22;33273;52.254;7.988;2023-05-10T05:32:48;12.80;99.90
47532;DHT22;33273;52.254;7.988;2023-05-10T05:35:14;12.80;99.90
47532;DHT22;33273;52.254;7.988;2023-05-10T05:37:40;12.90;99.90
47532;DHT22;33273;52.254;7.988;2023-05-10T05:40:15;12.80;99.90
47532;DHT22;33273;52.254;7.988;2023-05-10T05:42:41;12.80;99.90
47532;DHT22;33273;52.254;7.988;2023-05-10T05:45:07;12.80;99.90
47532;DHT22;33273;52.254;7.988;2023-05-10T05:47:35;12.90;99.90
47532;DHT22;33273;52.254;7.988;2023-05-10T05:50:01;12.90;99.90
47532;DHT22;33273;52.254;7.988;2023-05-10T05:52:27;12.90;99.90
47532;DHT22;33273;52.254;7.988;2023-05-10T05:54:54;13.00;99.90
47532;DHT22;33273;52.254;7.988;2023-05-10T05:57:20;13.00;99.90
47532;DHT22;33273;52.254;7.988;2023-05-10T05:59:45;13.00;99.90
47532;DHT22;33273;52.254;7.988;2023-05-10T06:02:12;13.00;99.90
47532;DHT22;33273;52.254;7.988;2023-05-10T06:04:38;13.00;99.90
47532;DHT22;33273;52.254;7.988;2023-05-10T06:07:04;13.00;99.90
47532;DHT22;33273;52.254;7.988;2023-05-10T06:09:31;13.00;99.90
47532;DHT22;33273;52.254;7.988;2023-05-10T06:11:56;13.00;99.90
47532;DHT22;33273;52.254;7.988;2023-05-10T06:14:22;13.00;99.90
47532;DHT22;33273;52.254;7.988;2023-05-10T06:16:48;13.10;99.90
47532;DHT22;33273;52.254;7.988;2023-05-10T06:19:14;13.10;99.90
47532;DHT22;33273;52.254;7.988;2023-05-10T06:21:40;13.10;99.90
47532;DHT22;33273;52.254;7.988;2023-05-10T06:24:06;13.10;99.90
47532;DHT22;33273;52.254;7.988;2023-05-10T06:26:32;13.10;99.90
47532;DHT22;33273;52.254;7.988;2023-05-10T06:29:00;13.10;99.90
47532;DHT22;33273;52.254;7.988;2023-05-10T06:31:26;13.20;99.90
47532;DHT22;33273;52.254;7.988;2023-05-10T06:33:52;13.20;99.90
47532;DHT22;33273;52.254;7.988;2023-05-10T06:36:18;13.20;99.90
47532;DHT22;33273;52.254;7.988;2023-05-10T06:38:44;13.20;99.90
47532;DHT22;33273;52.254;7.988;2023-05-10T06:41:10;13.30;99.90
47532;DHT22;33273;52.254;7.988;2023-05-10T06:43:36;13.40;99.90
47532;DHT22;33273;52.254;7.988;2023-05-10T06:46:05;13.40;99.90
47532;DHT22;33273;52.254;7.988;2023-05-10T06:48:32;13.40;99.90
47532;DHT22;33273;52.254;7.988;2023-05-10T06:50:58;13.40;99.90
47532;DHT22;33273;52.254;7.988;2023-05-10T06:53:24;13.50;99.90
47532;DHT22;33273;52.254;7.988;2023-05-10T06:55:49;13.40;99.90
47532;DHT22;33273;52.254;7.988;2023-05-10T06:58:15;13.40;99.90
47532;DHT22;33273;52.254;7.988;2023-05-10T07:00:41;13.50;99.90
47532;DHT22;33273;52.254;7.988;2023-05-10T07:03:10;13.50;99.90
47532;DHT22;33273;52.254;7.988;2023-05-10T07:05:36;13.70;99.90
47532;DHT22;33273;52.254;7.988;2023-05-10T07:08:02;13.80;99.90
47532;DHT22;33273;52.254;7.988;2023-05-10T07:10:27;13.90;99.90
47532;DHT22;33273;52.254;7.988;2023-05-10T07:12:53;14.00;99.90
47532;DHT22;33273;52.254;7.988;2023-05-10T07:15:19;14.10;99.90
47532;DHT22;33273;52.254;7.988;2023-05-10T07:17:45;14.10;99.90
47532;DHT22;33273;52.254;7.988;2023-05-10T07:20:12;14.20;99.90
47532;DHT22;33273;52.254;7.988;2023-05-10T07:22:38;14.20;99.90
47532;DHT22;33273;52.254;7.988;2023-05-10T07:25:06;14.30;99.90
47532;DHT22;33273;52.254;7.988;2023-05-10T07:27:32;14.30;99.90
47532;DHT22;33273;52.254;7.988;2023-05-10T07:29:58;14.30;99.90
47532;DHT22;33273;52.254;7.988;2023-05-10T07:32:24;14.30;99.90
47532;DHT22;33273;52.254;7.988;2023-05-10T07:34:50;14.30;99.90
47532;DHT22;33273;52.254;7.988;2023-05-10T07:37:15;14.30;99.90
47532;DHT22;33273;52.254;7.988;2023-05-10T07:39:41;14.20;99.90
47532;DHT22;33273;52.254;7.988;2023-05-10T07:42:07;14.30;99.90
47532;DHT22;33273;52.254;7.988;2023-05-10T07:44:33;14.30;99.90
47532;DHT22;33273;52.254;7.988;2023-05-10T07:47:00;14.30;99.90
47532;DHT22;33273;52.254;7.988;2023-05-10T07:49:26;14.50;99.90
47532;DHT22;33273;52.254;7.988;2023-05-10T07:51:52;14.60;99.90
47532;DHT22;33273;52.254;7.988;2023-05-10T07:54:18;14.80;99.90
47532;DHT22;33273;52.254;7.988;2023-05-10T07:56:44;14.80;99.90
47532;DHT22;33273;52.254;7.988;2023-05-10T07:59:21;14.90;99.90
47532;DHT22;33273;52.254;7.988;2023-05-10T08:01:47;14.80;99.90
47532;DHT22;33273;52.254;7.988;2023-05-10T08:04:14;15.00;99.90
47532;DHT22;33273;52.254;7.988;2023-05-10T08:06:40;15.20;99.90
47532;DHT22;33273;52.254;7.988;2023-05-10T08:09:06;15.20;99.90
47532;DHT22;33273;52.254;7.988;2023-05-10T08:11:32;15.20;99.90
47532;DHT22;33273;52.254;7.988;2023-05-10T08:13:58;15.40;99.90
47532;DHT22;33273;52.254;7.988;2023-05-10T08:16:24;15.40;99.90
47532;DHT22;33273;52.254;7.988;2023-05-10T08:18:51;15.40;99.90
47532;DHT22;33273;52.254;7.988;2023-05-10T08:21:17;15.50;99.90
47532;DHT22;33273;52.254;7.988;2023-05-10T08:23:44;15.60;99.90
47532;DHT22;33273;52.254;7.988;2023-05-10T08:26:10;15.70;99.90
47532;DHT22;33273;52.254;7.988;2023-05-10T08:28:36;15.80;99.90
47532;DHT22;33273;52.254;7.988;2023-05-10T08:31:05;16.00;99.90
47532;DHT22;33273;52.254;7.988;2023-05-10T08:33:34;16.10;99.90
47532;DHT22;33273;52.254;7.988;2023-05-10T08:36:04;16.30;99.90
47532;DHT22;33273;52.254;7.988;2023-05-10T08:38:29;16.60;99.90
47532;DHT22;33273;52.254;7.988;2023-05-10T08:40:55;16.70;99.90
47532;DHT22;33273;52.254;7.988;2023-05-10T08:43:27;16.60;99.90
47532;DHT22;33273;52.254;7.988;2023-05-10T08:45:55;16.70;99.90
47532;DHT22;33273;52.254;7.988;2023-05-10T08:48:24;16.60;99.90
47532;DHT22;33273;52.254;7.988;2023-05-10T08:50:52;16.50;99.90
47532;DHT22;33273;52.254;7.988;2023-05-10T08:53:21;16.50;99.90
47532;DHT22;33273;52.254;7.988;2023-05-10T08:55:49;16.40;99.90
47532;DHT22;33273;52.254;7.988;2023-05-10T08:58:17;16.40;99.90
47532;DHT22;33273;52.254;7.988;2023-05-10T09:00:45;16.50;99.90
47532;DHT22;33273;52.254;7.988;2023-05-10T09:03:12;16.50;99.90
47532;DHT22;33273;52.254;7.988;2023-05-10T09:05:38;16.60;99.80
47532;DHT22;33273;52.254;7.988;2023-05-10T09:08:06;16.40;98.30
47532;DHT22;33273;52.254;7.988;2023-05-10T09:10:32;16.50;99.90
47532;DHT22;33273;52.254;7.988;2023-05-10T09:12:59;16.40;98.80
47532;DHT22;33273;52.254;7.988;2023-05-10T09:15:26;16.40;99.90
47532;DHT22;33273;52.254;7.988;2023-05-10T09:17:51;16.60;99.20
47532;DHT22;33273;52.254;7.988;2023-05-10T09:20:17;16.40;97.50
47532;DHT22;33273;52.254;7.988;2023-05-10T09:22:43;16.40;98.20
47532;DHT22;33273;52.254;7.988;2023-05-10T09:27:38;16.70;96.90
47532;DHT22;33273;52.254;7.988;2023-05-10T09:30:05;16.70;97.00
47532;DHT22;33273;52.254;7.988;2023-05-10T09:32:43;16.70;97.00
47532;DHT22;33273;52.254;7.988;2023-05-10T09:35:11;16.80;96.10
47532;DHT22;33273;52.254;7.988;2023-05-10T09:37:43;16.80;97.90
47532;DHT22;33273;52.254;7.988;2023-05-10T09:40:15;16.90;98.30
47532;DHT22;33273;52.254;7.988;2023-05-10T09:42:43;16.90;95.50
47532;DHT22;33273;52.254;7.988;2023-05-10T09:45:16;16.80;94.80
47532;DHT22;33273;52.254;7.988;2023-05-10T09:47:42;17.00;97.90
47532;DHT22;33273;52.254;7.988;2023-05-10T09:50:08;17.20;95.10
47532;DHT22;33273;52.254;7.988;2023-05-10T09:52:48;17.20;93.40
47532;DHT22;33273;52.254;7.988;2023-05-10T09:55:14;17.20;93.00
47532;DHT22;33273;52.254;7.988;2023-05-10T09:57:40;17.20;88.60
47532;DHT22;33273;52.254;7.988;2023-05-10T10:00:07;17.20;91.80
47532;DHT22;33273;52.254;7.988;2023-05-10T10:02:39;17.00;87.40
47532;DHT22;33273;52.254;7.988;2023-05-10T10:05:07;17.00;88.80
47532;DHT22;33273;52.254;7.988;2023-05-10T10:07:33;17.10;88.10
47532;DHT22;33273;52.254;7.988;2023-05-10T10:10:00;17.10;87.50
47532;DHT22;33273;52.254;7.988;2023-05-10T10:12:26;17.30;90.90
47532;DHT22;33273;52.254;7.988;2023-05-10T10:14:52;17.50;91.90
47532;DHT22;33273;52.254;7.988;2023-05-10T10:17:19;17.60;85.90
47532;DHT22;33273;52.254;7.988;2023-05-10T10:19:47;17.50;80.70
47532;DHT22;33273;52.254;7.988;2023-05-10T10:22:13;17.50;81.40
47532;DHT22;33273;52.254;7.988;2023-05-10T10:24:40;17.50;82.20
47532;DHT22;33273;52.254;7.988;2023-05-10T10:35:24;17.50;81.50
47532;DHT22;33273;52.254;7.988;2023-05-10T10:37:51;17.70;81.30
47532;DHT22;33273;52.254;7.988;2023-05-10T10:40:28;17.80;81.30
47532;DHT22;33273;52.254;7.988;2023-05-10T10:42:55;17.90;77.70
47532;DHT22;33273;52.254;7.988;2023-05-10T10:45:21;17.90;76.40
47532;DHT22;33273;52.254;7.988;2023-05-10T10:47:47;18.00;76.30
47532;DHT22;33273;52.254;7.988;2023-05-10T10:50:15;18.00;69.00
47532;DHT22;33273;52.254;7.988;2023-05-10T10:52:44;17.90;70.40
47532;DHT22;33273;52.254;7.988;2023-05-10T10:55:18;18.10;73.70
47532;DHT22;33273;52.254;7.988;2023-05-10T11:00:36;18.30;65.40
47532;DHT22;33273;52.254;7.988;2023-05-10T11:03:06;18.10;67.90
47532;DHT22;33273;52.254;7.988;2023-05-10T11:08:00;18.20;68.90
47532;DHT22;33273;52.254;7.988;2023-05-10T11:10:27;18.20;67.80
47532;DHT22;33273;52.254;7.988;2023-05-10T11:13:03;18.30;66.70
47532;DHT22;33273;52.254;7.988;2023-05-10T11:15:38;18.20;65.10
47532;DHT22;33273;52.254;7.988;2023-05-10T11:18:36;18.10;64.40
47532;DHT22;33273;52.254;7.988;2023-05-10T11:21:03;18.00;66.60
47532;DHT22;33273;52.254;7.988;2023-05-10T11:26:09;17.90;64.00
47532;DHT22;33273;52.254;7.988;2023-05-10T11:28:40;17.90;67.00
47532;DHT22;33273;52.254;7.988;2023-05-10T11:31:06;17.80;65.80
47532;DHT22;33273;52.254;7.988;2023-05-10T11:33:45;17.90;68.30
47532;DHT22;33273;52.254;7.988;2023-05-10T11:36:13;18.10;66.50
47532;DHT22;33273;52.254;7.988;2023-05-10T11:38:40;18.30;65.00
47532;DHT22;33273;52.254;7.988;2023-05-10T11:41:11;18.50;66.10
47532;DHT22;33273;52.254;7.988;2023-05-10T11:43:41;18.60;65.30
47532;DHT22;33273;52.254;7.988;2023-05-10T11:46:13;18.70;60.80
47532;DHT22;33273;52.254;7.988;2023-05-10T11:48:40;18.60;60.10
47532;DHT22;33273;52.254;7.988;2023-05-10T11:51:08;18.60;59.50
47532;DHT22;33273;52.254;7.988;2023-05-10T11:53:34;18.50;60.70
47532;DHT22;33273;52.254;7.988;2023-05-10T11:56:07;18.40;60.90
47532;DHT22;33273;52.254;7.988;2023-05-10T11:58:34;18.50;61.50
47532;DHT22;33273;52.254;7.988;2023-05-10T12:01:00;18.50;62.20
47532;DHT22;33273;52.254;7.988;2023-05-10T12:03:28;18.60;60.70
47532;DHT22;33273;52.254;7.988;2023-05-10T12:05:55;18.50;58.90
47532;DHT22;33273;52.254;7.988;2023-05-10T12:08:23;18.60;63.50
47532;DHT22;33273;52.254;7.988;2023-05-10T12:10:49;18.60;61.90
47532;DHT22;33273;52.254;7.988;2023-05-10T12:13:16;18.60;60.60
47532;DHT22;33273;52.254;7.988;2023-05-10T12:15:42;18.60;60.40
47532;DHT22;33273;52.254;7.988;2023-05-10T12:18:09;18.40;60.20
47532;DHT22;33273;52.254;7.988;2023-05-10T12:20:38;18.20;58.50
47532;DHT22;33273;52.254;7.988;2023-05-10T12:23:04;18.20;59.70
47532;DHT22;33273;52.254;7.988;2023-05-10T12:25:36;18.40;59.50
47532;DHT22;33273;52.254;7.988;2023-05-10T12:28:09;18.40;60.50
47532;DHT22;33273;52.254;7.988;2023-05-10T12:30:36;18.40;57.00
47532;DHT22;33273;52.254;7.988;2023-05-10T12:33:13;18.40;58.90
47532;DHT22;33273;52.254;7.988;2023-05-10T12:35:49;18.40;58.70
47532;DHT22;33273;52.254;7.988;2023-05-10T12:38:33;18.50;59.90
47532;DHT22;33273;52.254;7.988;2023-05-10T12:41:01;18.60;59.20
47532;DHT22;33273;52.254;7.988;2023-05-10T12:43:28;18.70;56.70
47532;DHT22;33273;52.254;7.988;2023-05-10T12:45:54;18.70;57.20
47532;DHT22;33273;52.254;7.988;2023-05-10T12:48:20;18.80;59.30
47532;DHT22;33273;52.254;7.988;2023-05-10T12:50:46;18.90;59.10
47532;DHT22;33273;52.254;7.988;2023-05-10T12:53:16;19.00;56.90
47532;DHT22;33273;52.254;7.988;2023-05-10T12:55:43;19.00;57.50
47532;DHT22;33273;52.254;7.988;2023-05-10T12:58:08;19.00;55.10
47532;DHT22;33273;52.254;7.988;2023-05-10T13:00:34;19.00;56.80
47532;DHT22;33273;52.254;7.988;2023-05-10T13:03:01;19.10;57.20
47532;DHT22;33273;52.254;7.988;2023-05-10T13:05:28;19.10;55.30
47532;DHT22;33273;52.254;7.988;2023-05-10T13:07:56;19.20;53.50
47532;DHT22;33273;52.254;7.988;2023-05-10T13:10:21;19.10;53.70
47532;DHT22;33273;52.254;7.988;2023-05-10T13:12:49;18.80;52.50
47532;DHT22;33273;52.254;7.988;2023-05-10T13:15:15;18.80;53.50
47532;DHT22;33273;52.254;7.988;2023-05-10T13:17:40;18.90;56.10
47532;DHT22;33273;52.254;7.988;2023-05-10T13:20:08;18.80;51.50
47532;DHT22;33273;52.254;7.988;2023-05-10T13:22:37;18.80;51.40
47532;DHT22;33273;52.254;7.988;2023-05-10T13:25:04;18.80;50.00
47532;DHT22;33273;52.254;7.988;2023-05-10T13:27:31;18.60;53.40
47532;DHT22;33273;52.254;7.988;2023-05-10T13:29:57;18.40;55.10
47532;DHT22;33273;52.254;7.988;2023-05-10T13:32:25;18.30;55.80
47532;DHT22;33273;52.254;7.988;2023-05-10T13:34:51;18.20;55.70
47532;DHT22;33273;52.254;7.988;2023-05-10T13:37:17;18.30;58.50
47532;DHT22;33273;52.254;7.988;2023-05-10T13:39:43;18.20;59.60
47532;DHT22;33273;52.254;7.988;2023-05-10T13:42:09;18.10;58.80
47532;DHT22;33273;52.254;7.988;2023-05-10T13:44:35;18.10;58.60
47532;DHT22;33273;52.254;7.988;2023-05-10T13:47:01;18.20;60.90
47532;DHT22;33273;52.254;7.988;2023-05-10T13:49:27;18.30;59.30
47532;DHT22;33273;52.254;7.988;2023-05-10T13:51:53;18.40;59.10
47532;DHT22;33273;52.254;7.988;2023-05-10T13:54:20;18.40;55.70
47532;DHT22;33273;52.254;7.988;2023-05-10T13:56:48;18.40;56.60
47532;DHT22;33273;52.254;7.988;2023-05-10T13:59:14;18.40;59.40
47532;DHT22;33273;52.254;7.988;2023-05-10T14:01:41;18.60;59.40
47532;DHT22;33273;52.254;7.988;2023-05-10T14:04:08;18.80;57.00
47532;DHT22;33273;52.254;7.988;2023-05-10T14:06:39;19.10;55.40
47532;DHT22;33273;52.254;7.988;2023-05-10T14:09:04;19.20;54.90
47532;DHT22;33273;52.254;7.988;2023-05-10T14:11:30;19.10;53.70
47532;DHT22;33273;52.254;7.988;2023-05-10T14:13:56;18.90;53.90
47532;DHT22;33273;52.254;7.988;2023-05-10T14:16:22;18.70;53.50
47532;DHT22;33273;52.254;7.988;2023-05-10T14:18:48;18.70;55.70
47532;DHT22;33273;52.254;7.988;2023-05-10T14:21:15;18.50;53.50
47532;DHT22;33273;52.254;7.988;2023-05-10T14:23:41;18.40;56.10
47532;DHT22;33273;52.254;7.988;2023-05-10T14:26:06;18.50;56.80
47532;DHT22;33273;52.254;7.988;2023-05-10T14:28:34;18.40;55.30
47532;DHT22;33273;52.254;7.988;2023-05-10T14:30:59;18.40;57.40
47532;DHT22;33273;52.254;7.988;2023-05-10T14:33:25;18.40;57.80
47532;DHT22;33273;52.254;7.988;2023-05-10T14:35:51;18.30;57.70
47532;DHT22;33273;52.254;7.988;2023-05-10T14:38:17;18.30;58.70
47532;DHT22;33273;52.254;7.988;2023-05-10T14:40:43;18.40;58.10
47532;DHT22;33273;52.254;7.988;2023-05-10T14:43:09;18.40;58.50
47532;DHT22;33273;52.254;7.988;2023-05-10T14:45:35;18.40;56.80
47532;DHT22;33273;52.254;7.988;2023-05-10T14:48:01;18.30;57.80
47532;DHT22;33273;52.254;7.988;2023-05-10T14:50:30;18.20;58.20
47532;DHT22;33273;52.254;7.988;2023-05-10T14:52:58;18.10;58.50
47532;DHT22;33273;52.254;7.988;2023-05-10T14:55:24;18.10;60.00
47532;DHT22;33273;52.254;7.988;2023-05-10T14:57:50;18.10;60.80
47532;DHT22;33273;52.254;7.988;2023-05-10T15:00:16;18.20;58.60
47532;DHT22;33273;52.254;7.988;2023-05-10T15:02:46;18.30;60.00
47532;DHT22;33273;52.254;7.988;2023-05-10T15:05:13;18.50;58.60
47532;DHT22;33273;52.254;7.988;2023-05-10T15:07:39;18.70;55.70
47532;DHT22;33273;52.254;7.988;2023-05-10T15:10:05;18.60;53.40
47532;DHT22;33273;52.254;7.988;2023-05-10T15:12:31;18.70;56.20
47532;DHT22;33273;52.254;7.988;2023-05-10T15:14:57;18.70;54.90
47532;DHT22;33273;52.254;7.988;2023-05-10T15:17:23;18.80;56.80
47532;DHT22;33273;52.254;7.988;2023-05-10T15:19:50;18.90;56.50
47532;DHT22;33273;52.254;7.988;2023-05-10T15:22:16;18.80;55.80
47532;DHT22;33273;52.254;7.988;2023-05-10T15:24:43;18.80;56.40
47532;DHT22;33273;52.254;7.988;2023-05-10T15:27:09;18.80;54.80
47532;DHT22;33273;52.254;7.988;2023-05-10T15:29:34;18.50;52.40
47532;DHT22;33273;52.254;7.988;2023-05-10T15:32:01;18.40;54.70
47532;DHT22;33273;52.254;7.988;2023-05-10T15:34:30;18.20;52.90
47532;DHT22;33273;52.254;7.988;2023-05-10T15:36:56;18.30;54.90
47532;DHT22;33273;52.254;7.988;2023-05-10T15:39:22;18.40;56.00
47532;DHT22;33273;52.254;7.988;2023-05-10T15:41:48;18.30;54.40
47532;DHT22;33273;52.254;7.988;2023-05-10T15:44:14;18.30;51.80
47532;DHT22;33273;52.254;7.988;2023-05-10T15:46:49;18.20;53.80
47532;DHT22;33273;52.254;7.988;2023-05-10T15:49:16;18.30;56.90
47532;DHT22;33273;52.254;7.988;2023-05-10T15:51:41;18.30;55.30
47532;DHT22;33273;52.254;7.988;2023-05-10T15:54:07;18.30;54.70
47532;DHT22;33273;52.254;7.988;2023-05-10T15:56:33;18.10;52.70
47532;DHT22;33273;52.254;7.988;2023-05-10T15:58:59;18.00;55.00
47532;DHT22;33273;52.254;7.988;2023-05-10T16:01:26;18.00;57.70
47532;DHT22;33273;52.254;7.988;2023-05-10T16:03:51;18.10;56.50
47532;DHT22;33273;52.254;7.988;2023-05-10T16:06:17;18.00;53.50
47532;DHT22;33273;52.254;7.988;2023-05-10T16:08:43;18.00;54.70